createdAt,value
2019-03-01T00:00:57.537Z,100576.22
2019-03-01T00:03:28.070Z,100577.50
2019-03-01T00:06:37.193Z,100582.66
2019-03-01T00:09:46.878Z,100581.47
2019-03-01T00:12:51.636Z,100576.53
2019-03-01T00:15:35.502Z,100572.70
2019-03-01T00:18:16.446Z,100568.03
2019-03-01T00:21:10.433Z,100577.05
2019-03-01T00:23:55.816Z,100570.66
2019-03-01T00:27:22.267Z,100563.34
2019-03-01T00:30:22.389Z,100551.86
2019-03-01T00:33:00.371Z,100538.66
2019-03-01T00:35:57.944Z,100541.59
2019-03-01T00:39:05.912Z,100540.70
2019-03-01T00:42:12.743Z,100539.03
2019-03-01T00:44:43.697Z,100537.58
2019-03-01T00:47:13.652Z,100530.18
2019-03-01T00:49:43.181Z,100526.86
2019-03-01T00:52:12.869Z,100524.58
2019-03-01T00:54:42.477Z,100518.06
2019-03-01T00:57:12.107Z,100518.06
2019-03-01T00:59:41.663Z,100528.78
2019-03-01T01:02:11.290Z,100524.53
2019-03-01T01:04:40.834Z,100524.95
2019-03-01T01:07:10.392Z,100528.00
2019-03-01T01:09:39.922Z,100525.93
2019-03-01T01:12:10.250Z,100518.25
2019-03-01T01:14:40.852Z,100526.02
2019-03-01T01:17:10.417Z,100520.48
2019-03-01T01:19:40.949Z,100519.19
2019-03-01T01:22:10.496Z,100511.53
2019-03-01T01:24:40.224Z,100513.38
2019-03-01T01:27:09.773Z,100503.47
2019-03-01T01:29:39.323Z,100511.21
2019-03-01T01:32:08.892Z,100509.94
2019-03-01T01:34:38.468Z,100515.05
2019-03-01T01:37:08.044Z,100506.93
2019-03-01T01:39:37.625Z,100505.28
2019-03-01T01:42:07.171Z,100503.16
2019-03-01T01:44:36.691Z,100506.56
2019-03-01T01:47:06.277Z,100494.53
2019-03-01T01:49:35.812Z,100494.86
2019-03-01T01:52:05.410Z,100494.84
2019-03-01T01:54:34.927Z,100490.95
2019-03-01T01:57:04.449Z,100489.35
2019-03-01T01:59:33.963Z,100489.33
2019-03-01T02:02:03.480Z,100487.64
2019-03-01T02:04:33.985Z,100489.38
2019-03-01T02:07:03.528Z,100490.70
2019-03-01T02:09:33.062Z,100486.86
2019-03-01T02:12:02.598Z,100485.14
2019-03-01T02:14:32.129Z,100481.30
2019-03-01T02:17:01.659Z,100485.23
2019-03-01T02:19:31.173Z,100489.39
2019-03-01T02:22:01.677Z,100489.02
2019-03-01T02:24:31.198Z,100490.78
2019-03-01T02:27:26.315Z,100483.02
2019-03-01T02:30:05.039Z,100484.30
2019-03-01T02:32:45.249Z,100478.74
2019-03-01T02:35:25.639Z,100472.77
2019-03-01T02:37:55.152Z,100468.95
2019-03-01T02:40:24.691Z,100461.38
2019-03-01T02:42:54.213Z,100463.53
2019-03-01T02:45:23.812Z,100458.45
2019-03-01T02:47:53.340Z,100454.55
2019-03-01T02:50:22.940Z,100456.23
2019-03-01T02:52:52.468Z,100454.55
2019-03-01T02:55:22.261Z,100453.23
2019-03-01T02:57:51.795Z,100461.59
2019-03-01T03:00:23.090Z,100450.83
2019-03-01T03:02:52.641Z,100449.11
2019-03-01T03:05:22.202Z,100447.97
2019-03-01T03:07:56.535Z,100432.94
2019-03-01T03:10:26.129Z,100432.94
2019-03-01T03:13:00.883Z,100440.64
2019-03-01T03:15:32.984Z,100444.11
2019-03-01T03:18:03.503Z,100436.34
2019-03-01T03:20:33.020Z,100437.23
2019-03-01T03:23:02.557Z,100439.33
2019-03-01T03:25:32.065Z,100433.75
2019-03-01T03:28:01.597Z,100436.74
2019-03-01T03:30:31.137Z,100440.18
2019-03-01T03:33:00.669Z,100433.80
2019-03-01T03:35:30.199Z,100439.77
2019-03-01T03:37:59.740Z,100435.95
2019-03-01T03:40:29.293Z,100440.69
2019-03-01T03:42:58.853Z,100433.33
2019-03-01T03:45:28.405Z,100438.05
2019-03-01T03:47:57.945Z,100432.94
2019-03-01T03:50:27.466Z,100435.45
2019-03-01T03:52:57.042Z,100436.74
2019-03-01T03:55:26.524Z,100430.31
2019-03-01T03:57:56.136Z,100438.86
2019-03-01T04:00:25.735Z,100429.47
2019-03-01T04:02:55.292Z,100427.00
2019-03-01T04:05:24.801Z,100427.86
2019-03-01T04:07:54.331Z,100430.06
2019-03-01T04:10:24.850Z,100424.47
2019-03-01T04:12:54.375Z,100429.57
2019-03-01T04:15:23.921Z,100418.44
2019-03-01T04:17:53.733Z,100423.61
2019-03-01T04:20:23.256Z,100394.42
2019-03-01T04:22:52.789Z,100425.25
2019-03-01T04:25:22.336Z,100423.20
2019-03-01T04:27:53.413Z,100429.55
2019-03-01T04:30:24.393Z,100435.55
2019-03-01T04:32:53.956Z,100423.54
2019-03-01T04:35:23.486Z,100421.44
2019-03-01T04:37:53.093Z,100417.60
2019-03-01T04:40:22.704Z,100422.72
2019-03-01T04:42:52.223Z,100427.06
2019-03-01T04:45:21.770Z,100426.19
2019-03-01T04:47:51.336Z,100427.92
2019-03-01T04:50:20.871Z,100417.73
2019-03-01T04:52:50.427Z,100424.56
2019-03-01T04:55:22.359Z,100419.39
2019-03-01T04:57:51.889Z,100416.78
2019-03-01T05:00:22.899Z,100421.47
2019-03-01T05:02:52.442Z,100417.15
2019-03-01T05:05:21.989Z,100415.07
2019-03-01T05:07:51.520Z,100415.47
2019-03-01T05:10:21.068Z,100411.64
2019-03-01T05:12:50.589Z,100415.03
2019-03-01T05:15:21.495Z,100415.47
2019-03-01T05:17:51.189Z,100412.91
2019-03-01T05:20:20.728Z,100408.20
2019-03-01T05:22:50.371Z,100415.52
2019-03-01T05:25:19.923Z,100415.39
2019-03-01T05:27:49.446Z,100417.15
2019-03-01T05:30:19.068Z,100414.57
2019-03-01T05:32:48.628Z,100413.33
2019-03-01T05:35:18.219Z,100408.17
2019-03-01T05:37:47.756Z,100410.65
2019-03-01T05:40:17.376Z,100407.67
2019-03-01T05:42:46.946Z,100406.72
2019-03-01T05:45:19.042Z,100407.96
2019-03-01T05:47:48.555Z,100419.08
2019-03-01T05:50:18.079Z,100416.95
2019-03-01T05:52:47.636Z,100416.20
2019-03-01T05:55:17.412Z,100419.18
2019-03-01T05:58:23.337Z,100423.94
2019-03-01T06:00:53.204Z,100423.16
2019-03-01T06:03:52.313Z,100423.55
2019-03-01T06:06:27.158Z,100427.35
2019-03-01T06:09:35.062Z,100431.62
2019-03-01T06:12:30.481Z,100428.27
2019-03-01T06:15:36.090Z,100438.48
2019-03-01T06:18:58.534Z,100435.12
2019-03-01T06:22:10.067Z,100436.02
2019-03-01T06:25:20.629Z,100435.06
2019-03-01T06:28:20.854Z,100437.21
2019-03-01T06:31:11.180Z,100441.00
2019-03-01T06:34:05.654Z,100429.91
2019-03-01T06:36:58.383Z,100438.04
2019-03-01T06:39:55.205Z,100442.73
2019-03-01T06:43:09.222Z,100439.70
2019-03-01T06:46:08.582Z,100440.55
2019-03-01T06:48:44.816Z,100446.53
2019-03-01T06:51:28.615Z,100447.44
2019-03-01T06:53:52.581Z,100449.52
2019-03-01T06:56:22.117Z,100449.06
2019-03-01T06:58:55.000Z,100452.06
2019-03-01T07:01:30.027Z,100454.14
2019-03-01T07:04:08.264Z,100459.20
2019-03-01T07:06:37.822Z,100454.48
2019-03-01T07:09:07.448Z,100452.39
2019-03-01T07:11:37.148Z,100459.64
2019-03-01T07:14:06.791Z,100463.36
2019-03-01T07:16:36.357Z,100464.27
2019-03-01T07:19:05.921Z,100470.29
2019-03-01T07:21:37.302Z,100469.89
2019-03-01T07:24:06.902Z,100470.75
2019-03-01T07:26:36.471Z,100473.33
2019-03-01T07:29:06.009Z,100475.41
2019-03-01T07:31:35.547Z,100481.72
2019-03-01T07:34:05.090Z,100479.63
2019-03-01T07:36:35.263Z,100480.57
2019-03-01T07:39:06.444Z,100482.50
2019-03-01T07:41:36.046Z,100492.31
2019-03-01T07:44:05.682Z,100496.56
2019-03-01T07:46:35.208Z,100503.87
2019-03-01T07:49:05.010Z,100498.36
2019-03-01T07:51:36.004Z,100500.95
2019-03-01T07:54:05.719Z,100506.14
2019-03-01T07:56:37.041Z,100504.83
2019-03-01T07:59:06.509Z,100508.33
2019-03-01T08:01:36.061Z,100515.58
2019-03-01T08:04:06.582Z,100509.11
2019-03-01T08:06:36.163Z,100509.45
2019-03-01T08:09:11.685Z,100511.17
2019-03-01T08:11:41.269Z,100517.94
2019-03-01T08:14:10.852Z,100518.73
2019-03-01T08:16:40.409Z,100522.55
2019-03-01T08:19:09.956Z,100525.55
2019-03-01T08:21:42.639Z,100527.30
2019-03-01T08:24:11.852Z,100530.66
2019-03-01T08:26:41.543Z,100533.50
2019-03-01T08:29:11.094Z,100537.96
2019-03-01T08:31:40.642Z,100541.83
2019-03-01T08:34:10.196Z,100536.98
2019-03-01T08:36:42.440Z,100544.61
2019-03-01T08:39:10.969Z,100553.03
2019-03-01T08:41:40.532Z,100550.83
2019-03-01T08:44:10.091Z,100551.06
2019-03-01T08:46:41.970Z,100550.91
2019-03-01T08:49:11.510Z,100555.22
2019-03-01T08:51:41.195Z,100558.03
2019-03-01T08:54:10.764Z,100562.11
2019-03-01T08:56:40.310Z,100553.69
2019-03-01T08:59:09.857Z,100565.34
2019-03-01T09:01:41.820Z,100564.22
2019-03-01T09:04:14.171Z,100569.75
2019-03-01T09:06:44.076Z,100564.38
2019-03-01T09:09:13.671Z,100572.10
2019-03-01T09:11:44.775Z,100576.89
2019-03-01T09:14:15.448Z,100572.70
2019-03-01T09:16:45.066Z,100572.52
2019-03-01T09:19:14.548Z,100581.40
2019-03-01T09:21:44.711Z,100541.47
2019-03-01T09:24:15.352Z,100584.90
2019-03-01T09:26:44.905Z,100584.36
2019-03-01T09:29:18.601Z,100591.06
2019-03-01T09:31:45.697Z,100603.37
2019-03-01T09:34:15.232Z,100607.28
2019-03-01T09:36:47.536Z,100606.50
2019-03-01T09:39:18.119Z,100606.88
2019-03-01T09:41:48.345Z,100614.08
2019-03-01T09:44:17.908Z,100618.86
2019-03-01T09:46:47.475Z,100623.49
2019-03-01T09:49:17.030Z,100629.41
2019-03-01T09:51:49.185Z,100633.73
2019-03-01T09:54:17.816Z,100632.20
2019-03-01T09:56:47.379Z,100635.66
2019-03-01T09:59:16.907Z,100640.34
2019-03-01T10:01:46.461Z,100654.60
2019-03-01T10:04:15.992Z,100657.04
2019-03-01T10:06:45.540Z,100672.78
2019-03-01T10:09:15.087Z,100660.85
2019-03-01T10:11:44.637Z,100666.39
2019-03-01T10:14:14.439Z,100670.90
2019-03-01T10:16:44.044Z,100673.16
2019-03-01T10:19:13.709Z,100674.91
2019-03-01T10:21:43.239Z,100676.42
2019-03-01T10:24:12.765Z,100678.78
2019-03-01T10:26:42.298Z,100678.95
2019-03-01T10:29:11.839Z,100690.91
2019-03-01T10:31:41.389Z,100690.76
2019-03-01T10:34:10.922Z,100692.53
2019-03-01T10:36:40.493Z,100692.25
2019-03-01T10:39:14.076Z,100693.22
2019-03-01T10:41:43.620Z,100698.59
2019-03-01T10:44:13.172Z,100701.72
2019-03-01T10:46:42.741Z,100706.52
2019-03-01T10:49:12.266Z,100717.20
2019-03-01T10:51:42.129Z,100718.02
2019-03-01T10:54:11.664Z,100706.19
2019-03-01T10:56:41.196Z,100723.77
2019-03-01T10:59:10.790Z,100720.83
2019-03-01T11:01:40.417Z,100720.70
2019-03-01T11:04:09.947Z,100724.06
2019-03-01T11:06:39.483Z,100727.36
2019-03-01T11:09:09.031Z,100726.08
2019-03-01T11:11:38.640Z,100737.66
2019-03-01T11:14:09.166Z,100739.23
2019-03-01T11:16:38.770Z,100750.85
2019-03-01T11:19:08.272Z,100753.86
2019-03-01T11:21:38.706Z,100756.91
2019-03-01T11:24:08.283Z,100739.38
2019-03-01T11:26:37.836Z,100754.28
2019-03-01T11:29:07.413Z,100757.80
2019-03-01T11:31:36.971Z,100757.24
2019-03-01T11:34:06.595Z,100758.28
2019-03-01T11:36:36.151Z,100757.09
2019-03-01T11:39:06.847Z,100764.20
2019-03-01T11:41:37.617Z,100762.53
2019-03-01T11:44:07.233Z,100762.59
2019-03-01T11:46:36.841Z,100761.25
2019-03-01T11:49:06.374Z,100765.42
2019-03-01T11:51:36.757Z,100773.06
2019-03-01T11:54:07.381Z,100774.05
2019-03-01T11:56:36.885Z,100780.23
2019-03-01T11:59:06.449Z,100784.16
2019-03-01T12:01:35.973Z,100783.67
2019-03-01T12:04:05.518Z,100785.91
2019-03-01T12:06:35.036Z,100791.92
2019-03-01T12:09:06.012Z,100790.57
2019-03-01T12:11:36.196Z,100803.02
2019-03-01T12:14:05.806Z,100802.89
2019-03-01T12:16:35.334Z,100815.60
2019-03-01T12:19:04.883Z,100817.55
2019-03-01T12:21:34.514Z,100816.40
2019-03-01T12:24:05.058Z,100815.64
2019-03-01T12:26:34.614Z,100769.87
2019-03-01T12:29:04.163Z,100819.45
2019-03-01T12:31:33.692Z,100827.64
2019-03-01T12:34:03.231Z,100825.44
2019-03-01T12:36:32.769Z,100836.66
2019-03-01T12:39:02.302Z,100839.45
2019-03-01T12:41:33.478Z,100846.36
2019-03-01T12:44:03.023Z,100841.64
2019-03-01T12:46:32.546Z,100844.43
2019-03-01T12:49:02.067Z,100843.94
2019-03-01T12:51:32.613Z,100846.52
2019-03-01T12:54:02.472Z,100846.63
2019-03-01T12:56:32.213Z,100858.84
2019-03-01T12:59:01.756Z,100854.97
2019-03-01T13:01:32.891Z,100860.11
2019-03-01T13:04:03.163Z,100851.16
2019-03-01T13:06:35.457Z,100856.61
2019-03-01T13:09:04.325Z,100864.78
2019-03-01T13:11:35.622Z,100862.41
2019-03-01T13:14:05.147Z,100864.72
2019-03-01T13:16:34.671Z,100862.98
2019-03-01T13:19:04.242Z,100863.48
2019-03-01T13:21:33.835Z,100873.34
2019-03-01T13:24:03.379Z,100868.63
2019-03-01T13:26:37.682Z,100866.09
2019-03-01T13:29:05.805Z,100873.73
2019-03-01T13:31:35.354Z,100881.50
2019-03-01T13:34:04.903Z,100869.93
2019-03-01T13:36:36.124Z,100872.13
2019-03-01T13:39:07.782Z,100875.70
2019-03-01T13:41:38.033Z,100883.10
2019-03-01T13:44:07.624Z,100880.02
2019-03-01T13:46:37.133Z,100877.17
2019-03-01T13:49:06.672Z,100892.66
2019-03-01T13:51:37.182Z,100888.85
2019-03-01T13:54:09.005Z,100884.39
2019-03-01T13:56:38.893Z,100888.86
2019-03-01T13:59:08.480Z,100890.42
2019-03-01T14:01:38.014Z,100889.25
2019-03-01T14:04:09.503Z,100831.83
2019-03-01T14:06:40.379Z,100893.38
2019-03-01T14:09:14.166Z,100898.33
2019-03-01T14:11:43.706Z,100895.66
2019-03-01T14:14:13.232Z,100898.02
2019-03-01T14:16:42.759Z,100891.48
2019-03-01T14:19:12.292Z,100903.97
2019-03-01T14:21:42.815Z,100905.36
2019-03-01T14:24:13.322Z,100906.53
2019-03-01T14:26:42.858Z,100905.23
2019-03-01T14:29:12.879Z,100914.13
2019-03-01T14:31:42.988Z,100915.42
2019-03-01T14:34:13.298Z,100909.28
2019-03-01T14:36:43.277Z,100913.47
2019-03-01T14:39:17.664Z,100911.47
2019-03-01T14:41:47.275Z,100911.03
2019-03-01T14:44:16.828Z,100913.70
2019-03-01T14:46:47.273Z,100913.34
2019-03-01T14:49:18.553Z,100917.20
2019-03-01T14:51:48.062Z,100906.55
2019-03-01T14:54:21.192Z,100907.92
2019-03-01T14:56:55.560Z,100907.05
2019-03-01T14:59:40.124Z,100908.81
2019-03-01T15:02:24.373Z,100914.04
2019-03-01T15:04:54.400Z,100910.95
2019-03-01T15:07:24.020Z,100908.09
2019-03-01T15:09:57.014Z,100910.36
2019-03-01T15:12:24.864Z,100913.30
2019-03-01T15:14:54.475Z,100916.11
2019-03-01T15:17:23.984Z,100912.16
2019-03-01T15:19:53.590Z,100916.38
2019-03-01T15:22:23.123Z,100916.56
2019-03-01T15:24:52.655Z,100909.56
2019-03-01T15:27:22.187Z,100911.75
2019-03-01T15:29:51.717Z,100910.16
2019-03-01T15:32:21.822Z,100918.06
2019-03-01T15:34:51.350Z,100911.30
2019-03-01T15:37:20.856Z,100925.83
2019-03-01T15:39:51.329Z,100926.81
2019-03-01T15:42:22.809Z,100929.76
2019-03-01T15:44:52.328Z,100927.02
2019-03-01T15:47:23.807Z,100920.98
2019-03-01T15:49:53.080Z,100924.27
2019-03-01T15:52:22.604Z,100923.20
2019-03-01T15:54:52.193Z,100924.20
2019-03-01T15:57:21.717Z,100918.17
2019-03-01T15:59:51.237Z,100921.61
2019-03-01T16:02:20.756Z,100935.78
2019-03-01T16:04:50.289Z,100941.42
2019-03-01T16:07:20.793Z,100943.43
2019-03-01T16:09:50.323Z,100943.02
2019-03-01T16:12:19.842Z,100945.91
2019-03-01T16:14:49.392Z,100949.88
2019-03-01T16:17:21.925Z,100953.20
2019-03-01T16:19:53.288Z,100945.22
2019-03-01T16:22:21.365Z,100949.35
2019-03-01T16:24:50.887Z,100948.70
2019-03-01T16:27:20.421Z,100958.20
2019-03-01T16:29:49.964Z,100967.65
2019-03-01T16:32:19.516Z,100973.47
2019-03-01T16:34:49.274Z,100977.51
2019-03-01T16:37:18.821Z,100979.99
2019-03-01T16:39:48.373Z,100981.20
2019-03-01T16:42:18.827Z,100987.88
2019-03-01T16:44:48.504Z,100993.09
2019-03-01T16:47:18.024Z,100996.24
2019-03-01T16:49:47.552Z,101004.91
2019-03-01T16:52:17.082Z,101004.45
2019-03-01T16:54:47.616Z,100998.83
2019-03-01T16:57:18.644Z,101003.25
2019-03-01T16:59:48.276Z,101013.73
2019-03-01T17:02:17.813Z,101007.67
2019-03-01T17:04:47.349Z,101017.39
2019-03-01T17:07:16.884Z,101012.87
2019-03-01T17:09:47.272Z,101022.33
2019-03-01T17:12:17.654Z,101024.34
2019-03-01T17:14:48.121Z,101015.36
2019-03-01T17:17:17.654Z,101008.94
2019-03-01T17:19:47.201Z,101017.12
2019-03-01T17:22:16.732Z,101019.45
2019-03-01T17:24:48.311Z,101023.67
2019-03-01T17:27:17.510Z,101032.23
2019-03-01T17:29:47.057Z,101030.50
2019-03-01T17:32:16.612Z,101040.23
2019-03-01T17:34:46.146Z,101037.95
2019-03-01T17:37:15.892Z,101039.86
2019-03-01T17:39:45.442Z,101048.31
2019-03-01T17:42:17.520Z,101047.63
2019-03-01T17:44:46.202Z,101048.43
2019-03-01T17:47:16.210Z,101050.63
2019-03-01T17:49:45.740Z,101049.22
2019-03-01T17:52:15.285Z,101055.72
2019-03-01T17:54:44.825Z,101050.71
2019-03-01T17:57:14.357Z,101051.02
2019-03-01T17:59:44.594Z,101053.25
2019-03-01T18:02:15.812Z,101062.01
2019-03-01T18:04:45.387Z,101060.19
2019-03-01T18:07:14.952Z,101065.47
2019-03-01T18:09:45.259Z,101057.94
2019-03-01T18:12:17.413Z,101064.08
2019-03-01T18:14:46.995Z,101076.45
2019-03-01T18:17:16.525Z,101075.25
2019-03-01T18:19:46.036Z,101086.72
2019-03-01T18:22:15.580Z,101079.98
2019-03-01T18:24:46.740Z,101078.63
2019-03-01T18:27:17.930Z,101080.64
2019-03-01T18:29:47.537Z,101081.77
2019-03-01T18:32:17.257Z,101083.80
2019-03-01T18:34:46.768Z,101077.00
2019-03-01T18:37:19.350Z,101078.80
2019-03-01T18:39:47.520Z,101068.16
2019-03-01T18:42:17.053Z,101073.34
2019-03-01T18:44:46.577Z,101079.30
2019-03-01T18:47:16.139Z,101081.27
2019-03-01T18:49:46.649Z,101081.75
2019-03-01T18:52:17.663Z,101082.61
2019-03-01T18:54:47.412Z,101086.61
2019-03-01T18:57:16.949Z,101091.37
2019-03-01T18:59:46.471Z,101092.80
2019-03-01T19:02:15.985Z,101096.53
2019-03-01T19:04:45.583Z,101092.58
2019-03-01T19:07:15.103Z,101098.61
2019-03-01T19:09:44.644Z,101098.67
2019-03-01T19:12:14.257Z,101105.10
2019-03-01T19:14:43.771Z,101108.94
2019-03-01T19:17:13.305Z,101107.10
2019-03-01T19:19:42.832Z,101107.59
2019-03-01T19:22:12.341Z,101110.02
2019-03-01T19:24:43.282Z,101103.67
2019-03-01T19:27:15.515Z,101102.09
2019-03-01T19:29:44.416Z,101110.19
2019-03-01T19:32:13.974Z,101112.08
2019-03-01T19:34:43.517Z,101114.31
2019-03-01T19:37:14.353Z,101105.16
2019-03-01T19:39:44.090Z,101105.26
2019-03-01T19:42:14.680Z,101109.98
2019-03-01T19:44:44.206Z,101106.01
2019-03-01T19:47:13.733Z,101106.06
2019-03-01T19:49:45.182Z,101111.27
2019-03-01T19:52:16.326Z,101103.42
2019-03-01T19:54:45.864Z,101105.41
2019-03-01T19:57:15.399Z,101108.77
2019-03-01T19:59:46.516Z,101107.64
2019-03-01T20:02:16.160Z,101103.69
2019-03-01T20:04:45.713Z,101106.27
2019-03-01T20:07:15.985Z,101113.67
2019-03-01T20:09:46.487Z,101118.11
2019-03-01T20:12:16.037Z,101124.00
2019-03-01T20:14:45.622Z,101123.72
2019-03-01T20:17:15.210Z,101130.31
2019-03-01T20:19:44.754Z,101124.09
2019-03-01T20:22:15.410Z,101132.27
2019-03-01T20:24:45.661Z,101129.25
2019-03-01T20:27:15.182Z,101124.45
2019-03-01T20:29:44.720Z,101130.70
2019-03-01T20:32:15.704Z,101130.77
2019-03-01T20:34:46.085Z,101128.87
2019-03-01T20:37:15.635Z,101139.67
2019-03-01T20:39:47.500Z,101144.98
2019-03-01T20:42:17.687Z,101139.20
2019-03-01T20:44:50.263Z,101141.24
2019-03-01T20:47:19.457Z,101133.95
2019-03-01T20:49:49.081Z,101132.67
2019-03-01T20:52:18.694Z,101139.56
2019-03-01T20:54:48.235Z,101140.64
2019-03-01T20:57:17.772Z,101146.56
2019-03-01T20:59:50.552Z,101143.89
2019-03-01T21:02:18.603Z,101138.97
2019-03-01T21:04:53.311Z,101133.79
2019-03-01T21:07:19.367Z,101139.27
2019-03-01T21:09:49.869Z,101140.91
2019-03-01T21:12:19.383Z,101145.28
2019-03-01T21:14:48.922Z,101144.69
2019-03-01T21:17:20.375Z,101145.32
2019-03-01T21:19:49.695Z,101148.50
2019-03-01T21:22:19.234Z,101153.95
2019-03-01T21:24:48.785Z,101150.70
2019-03-01T21:27:18.290Z,101151.75
2019-03-01T21:29:48.384Z,101154.22
2019-03-01T21:32:17.909Z,101154.92
2019-03-01T21:34:47.437Z,101148.33
2019-03-01T21:37:16.964Z,101145.72
2019-03-01T21:39:47.471Z,101150.16
2019-03-01T21:42:20.214Z,101142.82
2019-03-01T21:44:48.235Z,101145.23
2019-03-01T21:47:17.766Z,101147.92
2019-03-01T21:49:47.297Z,101142.03
2019-03-01T21:52:16.827Z,101142.03
2019-03-01T21:54:48.654Z,101138.87
2019-03-01T21:57:17.568Z,101143.70
2019-03-01T21:59:49.701Z,101142.27
2019-03-01T22:02:18.342Z,101151.50
2019-03-01T22:04:47.865Z,101152.06
2019-03-01T22:07:18.082Z,101156.25
2019-03-01T22:09:47.613Z,101130.47
2019-03-01T22:12:17.132Z,101150.70
2019-03-01T22:14:49.083Z,101147.06
2019-03-01T22:17:17.872Z,101150.46
2019-03-01T22:19:47.431Z,101153.02
2019-03-01T22:22:16.979Z,101159.59
2019-03-01T22:24:46.545Z,101154.20
2019-03-01T22:27:16.071Z,101155.16
2019-03-01T22:29:47.170Z,101152.70
2019-03-01T22:32:16.898Z,101155.09
2019-03-01T22:34:46.433Z,101156.19
2019-03-01T22:37:15.988Z,101161.68
2019-03-01T22:39:48.415Z,101157.43
2019-03-01T22:42:16.726Z,101170.80
2019-03-01T22:44:46.268Z,101161.67
2019-03-01T22:47:15.795Z,101159.36
2019-03-01T22:49:45.322Z,101171.17
2019-03-01T22:52:14.859Z,101170.77
2019-03-01T22:54:44.395Z,101166.19
2019-03-01T22:57:13.919Z,101164.62
2019-03-01T22:59:43.731Z,101162.61
2019-03-01T23:02:17.158Z,101166.41
2019-03-01T23:04:46.766Z,101166.52
2019-03-01T23:07:16.360Z,101165.84
2019-03-01T23:09:46.489Z,101169.30
2019-03-01T23:12:18.737Z,101176.48
2019-03-01T23:14:49.029Z,101172.42
2019-03-01T23:17:18.560Z,101161.09
2019-03-01T23:19:51.720Z,101177.51
2019-03-01T23:22:19.282Z,101181.02
2019-03-01T23:24:49.474Z,101180.33
2019-03-01T23:27:19.027Z,101174.84
2019-03-01T23:29:50.998Z,101186.61
2019-03-01T23:32:19.769Z,101189.55
2019-03-01T23:34:49.298Z,101186.00
2019-03-01T23:37:18.829Z,101184.14
2019-03-01T23:39:48.337Z,101178.09
2019-03-01T23:42:20.847Z,101177.73
2019-03-01T23:44:49.151Z,101183.03
2019-03-01T23:47:19.267Z,101181.66
2019-03-01T23:49:48.778Z,101182.66
2019-03-01T23:52:19.559Z,101173.08
2019-03-01T23:54:49.530Z,101170.80
2019-03-01T23:57:19.066Z,101175.05
2019-03-01T23:59:48.646Z,101164.62
